sensor_id;sensor_type;location;lat;lon;timestamp;temperature;humidity
57664;DHT22;43493;53.098;6.064;2024-02-14T00:01:06;7.00;99.90
57664;DHT22;43493;53.098;6.064;2024-02-14T00:03:34;7.00;99.90
57664;DHT22;43493;53.098;6.064;2024-02-14T00:06:00;7.00;99.90
57664;DHT22;43493;53.098;6.064;2024-02-14T00:08:26;7.00;99.90
57664;DHT22;43493;53.098;6.064;2024-02-14T00:10:52;7.00;99.90
57664;DHT22;43493;53.098;6.064;2024-02-14T00:13:17;7.00;99.90
57664;DHT22;43493;53.098;6.064;2024-02-14T00:15:46;7.00;99.90
57664;DHT22;43493;53.098;6.064;2024-02-14T00:18:12;7.10;99.90
57664;DHT22;43493;53.098;6.064;2024-02-14T00:20:38;7.00;99.90
57664;DHT22;43493;53.098;6.064;2024-02-14T00:23:05;7.00;99.90
57664;DHT22;43493;53.098;6.064;2024-02-14T00:25:30;7.10;99.90
57664;DHT22;43493;53.098;6.064;2024-02-14T00:27:56;7.10;99.90
57664;DHT22;43493;53.098;6.064;2024-02-14T00:30:22;7.10;99.90
57664;DHT22;43493;53.098;6.064;2024-02-14T00:32:48;7.10;99.90
57664;DHT22;43493;53.098;6.064;2024-02-14T00:35:14;7.10;99.90
57664;DHT22;43493;53.098;6.064;2024-02-14T00:37:40;7.10;99.90
57664;DHT22;43493;53.098;6.064;2024-02-14T00:40:06;7.10;99.90
57664;DHT22;43493;53.098;6.064;2024-02-14T00:42:32;7.10;99.90
57664;DHT22;43493;53.098;6.064;2024-02-14T00:44:58;7.10;99.90
57664;DHT22;43493;53.098;6.064;2024-02-14T00:47:23;7.10;99.90
57664;DHT22;43493;53.098;6.064;2024-02-14T00:49:49;7.10;99.90
57664;DHT22;43493;53.098;6.064;2024-02-14T00:52:15;7.20;99.90
57664;DHT22;43493;53.098;6.064;2024-02-14T00:54:42;7.20;99.90
57664;DHT22;43493;53.098;6.064;2024-02-14T00:57:08;7.20;99.90
57664;DHT22;43493;53.098;6.064;2024-02-14T00:59:33;7.20;99.90
57664;DHT22;43493;53.098;6.064;2024-02-14T01:01:59;7.20;99.90
57664;DHT22;43493;53.098;6.064;2024-02-14T01:04:25;7.20;99.90
57664;DHT22;43493;53.098;6.064;2024-02-14T01:06:51;7.20;99.90
57664;DHT22;43493;53.098;6.064;2024-02-14T01:09:18;7.30;99.90
57664;DHT22;43493;53.098;6.064;2024-02-14T01:11:44;7.20;99.90
57664;DHT22;43493;53.098;6.064;2024-02-14T01:14:10;7.30;99.90
57664;DHT22;43493;53.098;6.064;2024-02-14T01:16:44;7.30;99.90
57664;DHT22;43493;53.098;6.064;2024-02-14T01:19:11;7.30;99.90
57664;DHT22;43493;53.098;6.064;2024-02-14T01:21:37;7.40;99.90
57664;DHT22;43493;53.098;6.064;2024-02-14T01:24:03;7.40;99.90
57664;DHT22;43493;53.098;6.064;2024-02-14T01:26:31;7.40;99.90
57664;DHT22;43493;53.098;6.064;2024-02-14T01:28:56;7.40;99.90
57664;DHT22;43493;53.098;6.064;2024-02-14T01:31:22;7.40;99.90
57664;DHT22;43493;53.098;6.064;2024-02-14T01:33:48;7.40;99.90
57664;DHT22;43493;53.098;6.064;2024-02-14T01:36:13;7.40;99.90
57664;DHT22;43493;53.098;6.064;2024-02-14T01:38:39;7.40;99.90
57664;DHT22;43493;53.098;6.064;2024-02-14T01:41:05;7.40;99.90
57664;DHT22;43493;53.098;6.064;2024-02-14T01:43:31;7.40;99.90
57664;DHT22;43493;53.098;6.064;2024-02-14T01:46:05;7.50;99.90
57664;DHT22;43493;53.098;6.064;2024-02-14T01:48:31;7.50;99.90
57664;DHT22;43493;53.098;6.064;2024-02-14T01:50:57;7.50;99.90
57664;DHT22;43493;53.098;6.064;2024-02-14T01:53:24;7.50;99.90
57664;DHT22;43493;53.098;6.064;2024-02-14T01:55:51;7.50;99.90
57664;DHT22;43493;53.098;6.064;2024-02-14T01:58:17;7.60;99.90
57664;DHT22;43493;53.098;6.064;2024-02-14T02:00:43;7.60;99.90
57664;DHT22;43493;53.098;6.064;2024-02-14T02:03:10;7.60;99.90
57664;DHT22;43493;53.098;6.064;2024-02-14T02:05:36;7.60;99.90
57664;DHT22;43493;53.098;6.064;2024-02-14T02:08:02;7.60;99.90
57664;DHT22;43493;53.098;6.064;2024-02-14T02:10:28;7.60;99.90
57664;DHT22;43493;53.098;6.064;2024-02-14T02:13:00;7.60;99.90
57664;DHT22;43493;53.098;6.064;2024-02-14T02:15:26;7.60;99.90
57664;DHT22;43493;53.098;6.064;2024-02-14T02:17:54;7.70;99.90
57664;DHT22;43493;53.098;6.064;2024-02-14T02:20:20;7.70;99.90
57664;DHT22;43493;53.098;6.064;2024-02-14T02:22:49;7.70;99.90
57664;DHT22;43493;53.098;6.064;2024-02-14T02:25:15;7.70;99.90
57664;DHT22;43493;53.098;6.064;2024-02-14T02:27:40;7.80;99.90
57664;DHT22;43493;53.098;6.064;2024-02-14T02:30:07;7.80;99.90
57664;DHT22;43493;53.098;6.064;2024-02-14T02:32:34;7.80;99.90
57664;DHT22;43493;53.098;6.064;2024-02-14T02:34:59;7.80;99.90
57664;DHT22;43493;53.098;6.064;2024-02-14T02:37:26;7.80;99.90
57664;DHT22;43493;53.098;6.064;2024-02-14T02:39:58;7.80;99.90
57664;DHT22;43493;53.098;6.064;2024-02-14T02:42:24;7.80;99.90
57664;DHT22;43493;53.098;6.064;2024-02-14T02:44:50;7.80;99.90
57664;DHT22;43493;53.098;6.064;2024-02-14T02:47:16;7.90;99.90
57664;DHT22;43493;53.098;6.064;2024-02-14T02:49:43;7.90;99.90
57664;DHT22;43493;53.098;6.064;2024-02-14T02:52:13;7.90;99.90
57664;DHT22;43493;53.098;6.064;2024-02-14T02:54:38;7.90;99.90
57664;DHT22;43493;53.098;6.064;2024-02-14T02:57:12;7.90;99.90
57664;DHT22;43493;53.098;6.064;2024-02-14T02:59:38;8.00;99.90
57664;DHT22;43493;53.098;6.064;2024-02-14T03:02:08;8.00;99.90
57664;DHT22;43493;53.098;6.064;2024-02-14T03:04:35;8.00;99.90
57664;DHT22;43493;53.098;6.064;2024-02-14T03:07:01;8.10;99.90
57664;DHT22;43493;53.098;6.064;2024-02-14T03:09:32;8.10;99.90
57664;DHT22;43493;53.098;6.064;2024-02-14T03:11:58;8.10;99.90
57664;DHT22;43493;53.098;6.064;2024-02-14T03:14:24;8.20;99.90
57664;DHT22;43493;53.098;6.064;2024-02-14T03:16:50;8.20;99.90
57664;DHT22;43493;53.098;6.064;2024-02-14T03:19:16;8.30;99.90
57664;DHT22;43493;53.098;6.064;2024-02-14T03:21:42;8.30;99.90
57664;DHT22;43493;53.098;6.064;2024-02-14T03:24:08;8.30;99.90
57664;DHT22;43493;53.098;6.064;2024-02-14T03:26:35;8.40;99.90
57664;DHT22;43493;53.098;6.064;2024-02-14T03:29:02;8.40;99.90
57664;DHT22;43493;53.098;6.064;2024-02-14T03:31:32;8.40;99.90
57664;DHT22;43493;53.098;6.064;2024-02-14T03:33:58;8.40;99.90
57664;DHT22;43493;53.098;6.064;2024-02-14T03:36:23;8.50;99.90
57664;DHT22;43493;53.098;6.064;2024-02-14T03:38:52;8.50;99.90
57664;DHT22;43493;53.098;6.064;2024-02-14T03:41:18;8.50;99.90
57664;DHT22;43493;53.098;6.064;2024-02-14T03:43:43;8.60;99.90
57664;DHT22;43493;53.098;6.064;2024-02-14T03:46:09;8.60;99.90
57664;DHT22;43493;53.098;6.064;2024-02-14T03:48:35;8.60;99.90
57664;DHT22;43493;53.098;6.064;2024-02-14T03:51:01;8.60;99.90
57664;DHT22;43493;53.098;6.064;2024-02-14T03:53:28;8.60;99.90
57664;DHT22;43493;53.098;6.064;2024-02-14T03:55:54;8.60;99.90
57664;DHT22;43493;53.098;6.064;2024-02-14T03:58:20;8.60;99.90
57664;DHT22;43493;53.098;6.064;2024-02-14T04:00:52;8.60;99.90
57664;DHT22;43493;53.098;6.064;2024-02-14T04:03:18;8.60;99.90
57664;DHT22;43493;53.098;6.064;2024-02-14T04:05:44;8.60;99.90
57664;DHT22;43493;53.098;6.064;2024-02-14T04:08:11;8.60;99.90
57664;DHT22;43493;53.098;6.064;2024-02-14T04:10:37;8.70;99.90
57664;DHT22;43493;53.098;6.064;2024-02-14T04:13:06;8.70;99.90
57664;DHT22;43493;53.098;6.064;2024-02-14T04:15:32;8.70;99.90
57664;DHT22;43493;53.098;6.064;2024-02-14T04:17:58;8.70;99.90
57664;DHT22;43493;53.098;6.064;2024-02-14T04:20:25;8.80;99.90
57664;DHT22;43493;53.098;6.064;2024-02-14T04:22:51;8.70;99.90
57664;DHT22;43493;53.098;6.064;2024-02-14T04:25:17;8.80;99.90
57664;DHT22;43493;53.098;6.064;2024-02-14T04:27:44;8.80;99.90
57664;DHT22;43493;53.098;6.064;2024-02-14T04:30:10;8.80;99.90
57664;DHT22;43493;53.098;6.064;2024-02-14T04:32:36;8.80;99.90
57664;DHT22;43493;53.098;6.064;2024-02-14T04:35:01;8.90;99.90
57664;DHT22;43493;53.098;6.064;2024-02-14T04:37:27;8.80;99.90
57664;DHT22;43493;53.098;6.064;2024-02-14T04:39:53;8.90;99.90
57664;DHT22;43493;53.098;6.064;2024-02-14T04:42:19;8.90;99.90
57664;DHT22;43493;53.098;6.064;2024-02-14T04:44:45;8.90;99.90
57664;DHT22;43493;53.098;6.064;2024-02-14T04:47:11;8.90;99.90
57664;DHT22;43493;53.098;6.064;2024-02-14T04:49:37;8.90;99.90
57664;DHT22;43493;53.098;6.064;2024-02-14T04:52:04;8.90;99.90
57664;DHT22;43493;53.098;6.064;2024-02-14T04:54:30;8.90;99.90
57664;DHT22;43493;53.098;6.064;2024-02-14T04:56:55;8.90;99.90
57664;DHT22;43493;53.098;6.064;2024-02-14T04:59:21;9.00;99.90
57664;DHT22;43493;53.098;6.064;2024-02-14T05:01:47;9.00;99.90
57664;DHT22;43493;53.098;6.064;2024-02-14T05:04:13;9.00;99.90
57664;DHT22;43493;53.098;6.064;2024-02-14T05:06:39;9.00;99.90
57664;DHT22;43493;53.098;6.064;2024-02-14T05:09:05;9.00;99.90
57664;DHT22;43493;53.098;6.064;2024-02-14T05:11:31;9.00;99.90
57664;DHT22;43493;53.098;6.064;2024-02-14T05:13:56;9.00;99.90
57664;DHT22;43493;53.098;6.064;2024-02-14T05:16:22;9.00;99.90
57664;DHT22;43493;53.098;6.064;2024-02-14T05:18:48;9.10;99.90
57664;DHT22;43493;53.098;6.064;2024-02-14T05:21:14;9.10;99.90
57664;DHT22;43493;53.098;6.064;2024-02-14T05:23:40;9.10;99.90
57664;DHT22;43493;53.098;6.064;2024-02-14T05:26:06;9.10;99.90
57664;DHT22;43493;53.098;6.064;2024-02-14T05:28:32;9.10;99.90
57664;DHT22;43493;53.098;6.064;2024-02-14T05:30:59;9.10;99.90
57664;DHT22;43493;53.098;6.064;2024-02-14T05:33:26;9.10;99.90
57664;DHT22;43493;53.098;6.064;2024-02-14T05:35:52;9.10;99.90
57664;DHT22;43493;53.098;6.064;2024-02-14T05:38:18;9.20;99.90
57664;DHT22;43493;53.098;6.064;2024-02-14T05:40:48;9.20;99.90
57664;DHT22;43493;53.098;6.064;2024-02-14T05:43:14;9.20;99.90
57664;DHT22;43493;53.098;6.064;2024-02-14T05:45:40;9.20;99.90
57664;DHT22;43493;53.098;6.064;2024-02-14T05:48:06;9.20;99.90
57664;DHT22;43493;53.098;6.064;2024-02-14T05:50:33;9.20;99.90
57664;DHT22;43493;53.098;6.064;2024-02-14T05:52:59;9.20;99.90
57664;DHT22;43493;53.098;6.064;2024-02-14T05:55:25;9.20;99.90
57664;DHT22;43493;53.098;6.064;2024-02-14T05:57:52;9.20;99.90
57664;DHT22;43493;53.098;6.064;2024-02-14T06:00:19;9.20;99.90
57664;DHT22;43493;53.098;6.064;2024-02-14T06:02:46;9.30;99.90
57664;DHT22;43493;53.098;6.064;2024-02-14T06:05:13;9.30;99.90
57664;DHT22;43493;53.098;6.064;2024-02-14T06:07:40;9.30;99.90
57664;DHT22;43493;53.098;6.064;2024-02-14T06:10:07;9.30;99.90
57664;DHT22;43493;53.098;6.064;2024-02-14T06:12:33;9.30;99.90
57664;DHT22;43493;53.098;6.064;2024-02-14T06:14:59;9.40;99.90
57664;DHT22;43493;53.098;6.064;2024-02-14T06:17:25;9.30;99.90
57664;DHT22;43493;53.098;6.064;2024-02-14T06:19:54;9.30;99.90
57664;DHT22;43493;53.098;6.064;2024-02-14T06:22:20;9.40;99.90
57664;DHT22;43493;53.098;6.064;2024-02-14T06:24:47;9.30;99.90
57664;DHT22;43493;53.098;6.064;2024-02-14T06:27:14;9.40;99.90
57664;DHT22;43493;53.098;6.064;2024-02-14T06:29:43;9.40;99.90
57664;DHT22;43493;53.098;6.064;2024-02-14T06:32:11;9.30;99.90
57664;DHT22;43493;53.098;6.064;2024-02-14T06:34:37;9.30;99.90
57664;DHT22;43493;53.098;6.064;2024-02-14T06:37:02;9.40;99.90
57664;DHT22;43493;53.098;6.064;2024-02-14T06:39:29;9.30;99.90
57664;DHT22;43493;53.098;6.064;2024-02-14T06:41:56;9.30;99.90
57664;DHT22;43493;53.098;6.064;2024-02-14T06:44:23;9.40;99.90
57664;DHT22;43493;53.098;6.064;2024-02-14T06:46:49;9.30;99.90
57664;DHT22;43493;53.098;6.064;2024-02-14T06:49:16;9.30;99.90
57664;DHT22;43493;53.098;6.064;2024-02-14T06:51:41;9.30;99.90
57664;DHT22;43493;53.098;6.064;2024-02-14T06:54:07;9.30;99.90
57664;DHT22;43493;53.098;6.064;2024-02-14T06:56:33;9.30;99.90
57664;DHT22;43493;53.098;6.064;2024-02-14T06:58:59;9.30;99.90
57664;DHT22;43493;53.098;6.064;2024-02-14T07:01:26;9.30;99.90
57664;DHT22;43493;53.098;6.064;2024-02-14T07:03:52;9.40;99.90
57664;DHT22;43493;53.098;6.064;2024-02-14T07:06:18;9.30;99.90
57664;DHT22;43493;53.098;6.064;2024-02-14T07:08:44;9.40;99.90
57664;DHT22;43493;53.098;6.064;2024-02-14T07:11:10;9.30;99.90
57664;DHT22;43493;53.098;6.064;2024-02-14T07:13:36;9.30;99.90
57664;DHT22;43493;53.098;6.064;2024-02-14T07:16:02;9.30;99.90
57664;DHT22;43493;53.098;6.064;2024-02-14T07:18:28;9.30;99.90
57664;DHT22;43493;53.098;6.064;2024-02-14T07:20:54;9.40;99.90
57664;DHT22;43493;53.098;6.064;2024-02-14T07:23:20;9.30;99.90
57664;DHT22;43493;53.098;6.064;2024-02-14T07:25:46;9.40;99.90
57664;DHT22;43493;53.098;6.064;2024-02-14T07:28:12;9.40;99.90
57664;DHT22;43493;53.098;6.064;2024-02-14T07:30:38;9.50;99.90
57664;DHT22;43493;53.098;6.064;2024-02-14T07:33:04;9.50;99.90
57664;DHT22;43493;53.098;6.064;2024-02-14T07:35:29;9.40;99.90
57664;DHT22;43493;53.098;6.064;2024-02-14T07:37:56;9.40;99.90
57664;DHT22;43493;53.098;6.064;2024-02-14T07:40:22;9.40;99.90
57664;DHT22;43493;53.098;6.064;2024-02-14T07:42:48;9.50;99.90
57664;DHT22;43493;53.098;6.064;2024-02-14T07:45:14;9.50;99.90
57664;DHT22;43493;53.098;6.064;2024-02-14T07:47:40;9.50;99.90
57664;DHT22;43493;53.098;6.064;2024-02-14T07:50:06;9.40;99.90
57664;DHT22;43493;53.098;6.064;2024-02-14T07:52:32;9.50;99.90
57664;DHT22;43493;53.098;6.064;2024-02-14T07:54:58;9.50;99.90
57664;DHT22;43493;53.098;6.064;2024-02-14T07:57:24;9.60;99.90
57664;DHT22;43493;53.098;6.064;2024-02-14T07:59:53;9.60;99.90
57664;DHT22;43493;53.098;6.064;2024-02-14T08:02:19;9.60;99.90
57664;DHT22;43493;53.098;6.064;2024-02-14T08:04:45;9.50;99.90
57664;DHT22;43493;53.098;6.064;2024-02-14T08:07:11;9.50;99.90
57664;DHT22;43493;53.098;6.064;2024-02-14T08:09:37;9.60;99.90
57664;DHT22;43493;53.098;6.064;2024-02-14T08:12:05;9.60;99.90
57664;DHT22;43493;53.098;6.064;2024-02-14T08:14:31;9.60;99.90
57664;DHT22;43493;53.098;6.064;2024-02-14T08:16:57;9.60;99.90
57664;DHT22;43493;53.098;6.064;2024-02-14T08:19:23;9.70;99.90
57664;DHT22;43493;53.098;6.064;2024-02-14T08:21:49;9.70;99.90
57664;DHT22;43493;53.098;6.064;2024-02-14T08:24:15;9.60;99.90
57664;DHT22;43493;53.098;6.064;2024-02-14T08:26:40;9.70;99.90
57664;DHT22;43493;53.098;6.064;2024-02-14T08:29:06;9.80;99.90
57664;DHT22;43493;53.098;6.064;2024-02-14T08:31:32;9.80;99.90
57664;DHT22;43493;53.098;6.064;2024-02-14T08:33:59;9.70;99.90
57664;DHT22;43493;53.098;6.064;2024-02-14T08:36:24;9.80;99.90
57664;DHT22;43493;53.098;6.064;2024-02-14T08:38:50;9.80;99.90
57664;DHT22;43493;53.098;6.064;2024-02-14T08:41:16;9.80;99.90
57664;DHT22;43493;53.098;6.064;2024-02-14T08:43:43;9.90;99.90
57664;DHT22;43493;53.098;6.064;2024-02-14T08:46:10;9.90;99.90
57664;DHT22;43493;53.098;6.064;2024-02-14T08:48:37;9.80;99.90
57664;DHT22;43493;53.098;6.064;2024-02-14T08:51:07;9.90;99.90
57664;DHT22;43493;53.098;6.064;2024-02-14T08:53:35;9.90;99.90
57664;DHT22;43493;53.098;6.064;2024-02-14T08:56:01;10.00;99.90
57664;DHT22;43493;53.098;6.064;2024-02-14T08:58:30;10.00;99.90
57664;DHT22;43493;53.098;6.064;2024-02-14T09:00:56;9.90;99.90
57664;DHT22;43493;53.098;6.064;2024-02-14T09:03:21;9.90;99.90
57664;DHT22;43493;53.098;6.064;2024-02-14T09:05:48;10.00;99.90
57664;DHT22;43493;53.098;6.064;2024-02-14T09:08:14;10.10;99.90
57664;DHT22;43493;53.098;6.064;2024-02-14T09:10:40;10.00;99.90
57664;DHT22;43493;53.098;6.064;2024-02-14T09:13:06;10.00;99.90
57664;DHT22;43493;53.098;6.064;2024-02-14T09:15:33;10.10;99.90
57664;DHT22;43493;53.098;6.064;2024-02-14T09:17:59;10.10;99.90
57664;DHT22;43493;53.098;6.064;2024-02-14T09:20:25;10.10;99.90
57664;DHT22;43493;53.098;6.064;2024-02-14T09:22:51;10.00;99.90
57664;DHT22;43493;53.098;6.064;2024-02-14T09:25:18;10.00;99.90
57664;DHT22;43493;53.098;6.064;2024-02-14T09:27:44;10.10;99.90
57664;DHT22;43493;53.098;6.064;2024-02-14T09:30:12;10.20;99.90
57664;DHT22;43493;53.098;6.064;2024-02-14T09:32:38;10.10;99.90
57664;DHT22;43493;53.098;6.064;2024-02-14T09:35:04;10.10;99.90
57664;DHT22;43493;53.098;6.064;2024-02-14T09:37:32;10.10;99.90
57664;DHT22;43493;53.098;6.064;2024-02-14T09:39:58;10.10;99.90
57664;DHT22;43493;53.098;6.064;2024-02-14T09:42:44;10.10;99.90
57664;DHT22;43493;53.098;6.064;2024-02-14T09:45:12;10.10;99.90
57664;DHT22;43493;53.098;6.064;2024-02-14T09:47:40;10.00;99.90
57664;DHT22;43493;53.098;6.064;2024-02-14T09:50:07;10.00;99.90
57664;DHT22;43493;53.098;6.064;2024-02-14T09:52:33;10.10;99.90
57664;DHT22;43493;53.098;6.064;2024-02-14T09:55:01;10.10;99.90
57664;DHT22;43493;53.098;6.064;2024-02-14T09:57:29;10.10;99.90
57664;DHT22;43493;53.098;6.064;2024-02-14T09:59:56;10.10;99.90
57664;DHT22;43493;53.098;6.064;2024-02-14T10:02:22;10.10;99.90
57664;DHT22;43493;53.098;6.064;2024-02-14T10:04:48;10.10;99.90
57664;DHT22;43493;53.098;6.064;2024-02-14T10:07:13;10.20;99.90
57664;DHT22;43493;53.098;6.064;2024-02-14T10:09:43;10.10;99.90
57664;DHT22;43493;53.098;6.064;2024-02-14T10:12:09;10.20;99.90
57664;DHT22;43493;53.098;6.064;2024-02-14T10:14:35;10.10;99.90
57664;DHT22;43493;53.098;6.064;2024-02-14T10:17:05;10.10;99.90
57664;DHT22;43493;53.098;6.064;2024-02-14T10:19:31;10.20;99.90
57664;DHT22;43493;53.098;6.064;2024-02-14T10:21:58;10.20;99.90
57664;DHT22;43493;53.098;6.064;2024-02-14T10:24:27;10.20;99.90
57664;DHT22;43493;53.098;6.064;2024-02-14T10:26:53;10.20;99.90
57664;DHT22;43493;53.098;6.064;2024-02-14T10:29:20;10.20;99.90
57664;DHT22;43493;53.098;6.064;2024-02-14T10:31:48;10.30;99.90
57664;DHT22;43493;53.098;6.064;2024-02-14T10:34:14;10.30;99.90
57664;DHT22;43493;53.098;6.064;2024-02-14T10:36:42;10.40;99.90
57664;DHT22;43493;53.098;6.064;2024-02-14T10:39:11;10.30;99.90
57664;DHT22;43493;53.098;6.064;2024-02-14T10:41:37;10.40;99.90
57664;DHT22;43493;53.098;6.064;2024-02-14T10:44:05;10.40;99.90
57664;DHT22;43493;53.098;6.064;2024-02-14T10:46:37;10.30;99.90
57664;DHT22;43493;53.098;6.064;2024-02-14T10:49:04;10.40;99.90
57664;DHT22;43493;53.098;6.064;2024-02-14T10:51:34;10.40;99.90
57664;DHT22;43493;53.098;6.064;2024-02-14T10:54:12;10.40;99.90
57664;DHT22;43493;53.098;6.064;2024-02-14T10:56:41;10.40;99.90
57664;DHT22;43493;53.098;6.064;2024-02-14T10:59:10;10.40;99.90
57664;DHT22;43493;53.098;6.064;2024-02-14T11:01:37;10.50;99.90
57664;DHT22;43493;53.098;6.064;2024-02-14T11:04:04;10.40;99.90
57664;DHT22;43493;53.098;6.064;2024-02-14T11:06:47;10.50;99.90
57664;DHT22;43493;53.098;6.064;2024-02-14T11:09:14;10.60;99.90
57664;DHT22;43493;53.098;6.064;2024-02-14T11:11:42;10.60;99.90
57664;DHT22;43493;53.098;6.064;2024-02-14T11:14:09;10.50;99.90
57664;DHT22;43493;53.098;6.064;2024-02-14T11:16:37;10.60;99.90
57664;DHT22;43493;53.098;6.064;2024-02-14T11:19:10;10.60;99.90
57664;DHT22;43493;53.098;6.064;2024-02-14T11:21:39;10.50;99.90
57664;DHT22;43493;53.098;6.064;2024-02-14T11:24:07;10.60;99.90
57664;DHT22;43493;53.098;6.064;2024-02-14T11:29:05;10.50;99.90
57664;DHT22;43493;53.098;6.064;2024-02-14T11:31:33;10.50;99.90
57664;DHT22;43493;53.098;6.064;2024-02-14T11:34:05;10.50;99.90
57664;DHT22;43493;53.098;6.064;2024-02-14T11:36:32;10.60;99.90
57664;DHT22;43493;53.098;6.064;2024-02-14T11:38:59;10.60;99.90
57664;DHT22;43493;53.098;6.064;2024-02-14T11:41:27;10.60;99.90
57664;DHT22;43493;53.098;6.064;2024-02-14T11:43:53;10.60;99.90
57664;DHT22;43493;53.098;6.064;2024-02-14T11:46:19;10.60;99.90
57664;DHT22;43493;53.098;6.064;2024-02-14T11:48:45;10.60;99.90
57664;DHT22;43493;53.098;6.064;2024-02-14T11:51:14;10.70;99.90
57664;DHT22;43493;53.098;6.064;2024-02-14T11:53:40;10.80;99.90
57664;DHT22;43493;53.098;6.064;2024-02-14T11:56:06;10.90;99.90
57664;DHT22;43493;53.098;6.064;2024-02-14T11:58:32;10.90;99.90
57664;DHT22;43493;53.098;6.064;2024-02-14T12:00:57;11.00;99.90
57664;DHT22;43493;53.098;6.064;2024-02-14T12:03:23;10.90;99.90
57664;DHT22;43493;53.098;6.064;2024-02-14T12:05:53;10.90;99.90
57664;DHT22;43493;53.098;6.064;2024-02-14T12:08:20;10.90;99.90
57664;DHT22;43493;53.098;6.064;2024-02-14T12:10:47;11.00;99.90
57664;DHT22;43493;53.098;6.064;2024-02-14T12:13:17;10.90;99.90
57664;DHT22;43493;53.098;6.064;2024-02-14T12:15:47;11.00;99.90
57664;DHT22;43493;53.098;6.064;2024-02-14T12:18:13;10.90;99.90
57664;DHT22;43493;53.098;6.064;2024-02-14T12:20:42;10.90;99.90
57664;DHT22;43493;53.098;6.064;2024-02-14T12:23:15;10.90;99.90
57664;DHT22;43493;53.098;6.064;2024-02-14T12:25:43;10.90;99.90
57664;DHT22;43493;53.098;6.064;2024-02-14T12:28:15;11.00;99.90
57664;DHT22;43493;53.098;6.064;2024-02-14T12:30:47;11.00;99.90
57664;DHT22;43493;53.098;6.064;2024-02-14T12:33:22;11.00;99.90
57664;DHT22;43493;53.098;6.064;2024-02-14T12:35:49;10.90;99.90
57664;DHT22;43493;53.098;6.064;2024-02-14T12:38:16;11.00;99.90
57664;DHT22;43493;53.098;6.064;2024-02-14T12:40:42;11.00;99.90
57664;DHT22;43493;53.098;6.064;2024-02-14T12:43:10;11.00;99.90
57664;DHT22;43493;53.098;6.064;2024-02-14T12:45:39;10.90;99.90
57664;DHT22;43493;53.098;6.064;2024-02-14T12:48:06;11.00;99.90
57664;DHT22;43493;53.098;6.064;2024-02-14T12:50:34;11.00;99.90
57664;DHT22;43493;53.098;6.064;2024-02-14T12:53:01;10.90;99.90
57664;DHT22;43493;53.098;6.064;2024-02-14T12:55:27;10.90;99.90
57664;DHT22;43493;53.098;6.064;2024-02-14T12:57:57;11.10;99.90
57664;DHT22;43493;53.098;6.064;2024-02-14T13:00:23;11.00;99.90
57664;DHT22;43493;53.098;6.064;2024-02-14T13:02:49;11.00;99.90
57664;DHT22;43493;53.098;6.064;2024-02-14T13:05:16;10.90;99.90
57664;DHT22;43493;53.098;6.064;2024-02-14T13:07:43;10.90;99.90
57664;DHT22;43493;53.098;6.064;2024-02-14T13:10:09;11.00;99.90
57664;DHT22;43493;53.098;6.064;2024-02-14T13:12:36;11.00;99.90
57664;DHT22;43493;53.098;6.064;2024-02-14T13:15:03;11.00;99.90
57664;DHT22;43493;53.098;6.064;2024-02-14T13:17:29;11.00;99.90
57664;DHT22;43493;53.098;6.064;2024-02-14T13:19:55;10.90;99.90
57664;DHT22;43493;53.098;6.064;2024-02-14T13:22:21;10.90;99.90
57664;DHT22;43493;53.098;6.064;2024-02-14T13:24:46;10.90;99.90
57664;DHT22;43493;53.098;6.064;2024-02-14T13:27:12;11.00;99.90
57664;DHT22;43493;53.098;6.064;2024-02-14T13:29:39;10.90;99.90
57664;DHT22;43493;53.098;6.064;2024-02-14T13:32:06;11.00;99.90
57664;DHT22;43493;53.098;6.064;2024-02-14T13:34:33;10.90;99.90
57664;DHT22;43493;53.098;6.064;2024-02-14T13:36:59;10.90;99.90
57664;DHT22;43493;53.098;6.064;2024-02-14T13:39:25;10.90;99.90
57664;DHT22;43493;53.098;6.064;2024-02-14T13:41:51;10.90;99.90
57664;DHT22;43493;53.098;6.064;2024-02-14T13:44:18;11.00;99.90
57664;DHT22;43493;53.098;6.064;2024-02-14T13:46:45;10.90;99.90
57664;DHT22;43493;53.098;6.064;2024-02-14T13:49:11;10.90;99.90
57664;DHT22;43493;53.098;6.064;2024-02-14T13:51:38;11.00;99.90
57664;DHT22;43493;53.098;6.064;2024-02-14T13:54:04;11.00;99.90
57664;DHT22;43493;53.098;6.064;2024-02-14T13:56:30;11.00;99.90
57664;DHT22;43493;53.098;6.064;2024-02-14T13:58:56;11.10;99.90
57664;DHT22;43493;53.098;6.064;2024-02-14T14:01:22;11.20;99.90
57664;DHT22;43493;53.098;6.064;2024-02-14T14:03:49;11.10;99.90
57664;DHT22;43493;53.098;6.064;2024-02-14T14:06:16;11.10;99.90
57664;DHT22;43493;53.098;6.064;2024-02-14T14:08:41;11.20;99.90
57664;DHT22;43493;53.098;6.064;2024-02-14T14:11:07;11.20;99.90
57664;DHT22;43493;53.098;6.064;2024-02-14T14:13:34;11.20;99.90
57664;DHT22;43493;53.098;6.064;2024-02-14T14:16:00;11.20;99.90
57664;DHT22;43493;53.098;6.064;2024-02-14T14:18:26;11.10;99.90
57664;DHT22;43493;53.098;6.064;2024-02-14T14:20:52;11.20;99.90
57664;DHT22;43493;53.098;6.064;2024-02-14T14:23:20;11.20;99.90
57664;DHT22;43493;53.098;6.064;2024-02-14T14:25:46;11.20;99.90
57664;DHT22;43493;53.098;6.064;2024-02-14T14:28:12;11.30;99.90
57664;DHT22;43493;53.098;6.064;2024-02-14T14:30:37;11.30;99.90
57664;DHT22;43493;53.098;6.064;2024-02-14T14:33:04;11.20;99.90
57664;DHT22;43493;53.098;6.064;2024-02-14T14:35:30;11.30;99.90
57664;DHT22;43493;53.098;6.064;2024-02-14T14:38:05;11.20;99.90
57664;DHT22;43493;53.098;6.064;2024-02-14T14:40:30;11.20;99.90
57664;DHT22;43493;53.098;6.064;2024-02-14T14:42:56;11.20;99.90
57664;DHT22;43493;53.098;6.064;2024-02-14T14:45:22;11.20;99.90
57664;DHT22;43493;53.098;6.064;2024-02-14T14:47:48;11.30;99.90
57664;DHT22;43493;53.098;6.064;2024-02-14T14:50:15;11.20;99.90
57664;DHT22;43493;53.098;6.064;2024-02-14T14:52:43;11.20;99.90
57664;DHT22;43493;53.098;6.064;2024-02-14T14:55:09;11.20;99.90
57664;DHT22;43493;53.098;6.064;2024-02-14T14:57:35;11.20;99.90
57664;DHT22;43493;53.098;6.064;2024-02-14T15:00:10;11.20;99.90
57664;DHT22;43493;53.098;6.064;2024-02-14T15:02:42;11.30;99.90
57664;DHT22;43493;53.098;6.064;2024-02-14T15:05:10;11.20;99.90
57664;DHT22;43493;53.098;6.064;2024-02-14T15:07:37;11.30;99.90
57664;DHT22;43493;53.098;6.064;2024-02-14T15:10:03;11.20;99.90
57664;DHT22;43493;53.098;6.064;2024-02-14T15:12:30;11.20;99.90
57664;DHT22;43493;53.098;6.064;2024-02-14T15:14:56;11.10;99.90
57664;DHT22;43493;53.098;6.064;2024-02-14T15:17:22;11.20;99.90
57664;DHT22;43493;53.098;6.064;2024-02-14T15:19:49;11.10;99.90
57664;DHT22;43493;53.098;6.064;2024-02-14T15:22:14;11.20;99.90
57664;DHT22;43493;53.098;6.064;2024-02-14T15:24:41;11.20;99.90
57664;DHT22;43493;53.098;6.064;2024-02-14T15:27:11;11.20;99.90
57664;DHT22;43493;53.098;6.064;2024-02-14T15:29:55;11.10;99.90
57664;DHT22;43493;53.098;6.064;2024-02-14T15:32:39;11.10;99.90
57664;DHT22;43493;53.098;6.064;2024-02-14T15:35:23;11.00;99.90
57664;DHT22;43493;53.098;6.064;2024-02-14T15:37:50;11.00;99.90
57664;DHT22;43493;53.098;6.064;2024-02-14T15:40:18;11.10;99.90